sensor_id;sensor_type;location;lat;lon;timestamp;temperature;humidity
22923;DHT22;11627;51.322;22.816;2022-07-10T00:02:04;15.90;24.50
22923;DHT22;11627;51.322;22.816;2022-07-10T00:04:32;15.80;99.90
22923;DHT22;11627;51.322;22.816;2022-07-10T00:06:59;15.80;93.60
22923;DHT22;11627;51.322;22.816;2022-07-10T00:09:29;15.70;58.80
22923;DHT22;11627;51.322;22.816;2022-07-10T00:11:56;15.60;95.60
22923;DHT22;11627;51.322;22.816;2022-07-10T00:14:22;15.70;60.50
22923;DHT22;11627;51.322;22.816;2022-07-10T00:16:50;15.70;35.70
22923;DHT22;11627;51.322;22.816;2022-07-10T00:19:17;15.70;36.80
22923;DHT22;11627;51.322;22.816;2022-07-10T00:21:44;15.60;77.10
22923;DHT22;11627;51.322;22.816;2022-07-10T00:24:12;15.60;94.60
22923;DHT22;11627;51.322;22.816;2022-07-10T00:26:38;15.50;99.90
22923;DHT22;11627;51.322;22.816;2022-07-10T00:29:05;15.60;99.90
22923;DHT22;11627;51.322;22.816;2022-07-10T00:31:32;15.50;99.90
22923;DHT22;11627;51.322;22.816;2022-07-10T00:33:59;15.50;99.90
22923;DHT22;11627;51.322;22.816;2022-07-10T00:36:26;15.60;99.90
22923;DHT22;11627;51.322;22.816;2022-07-10T00:38:53;15.50;99.90
22923;DHT22;11627;51.322;22.816;2022-07-10T00:41:20;15.50;99.90
22923;DHT22;11627;51.322;22.816;2022-07-10T00:43:59;15.50;99.90
22923;DHT22;11627;51.322;22.816;2022-07-10T00:46:28;15.50;99.90
22923;DHT22;11627;51.322;22.816;2022-07-10T00:48:56;15.40;99.90
22923;DHT22;11627;51.322;22.816;2022-07-10T00:51:25;15.30;99.90
22923;DHT22;11627;51.322;22.816;2022-07-10T00:53:54;15.40;99.90
22923;DHT22;11627;51.322;22.816;2022-07-10T00:56:24;15.30;99.90
22923;DHT22;11627;51.322;22.816;2022-07-10T00:58:52;15.30;99.90
22923;DHT22;11627;51.322;22.816;2022-07-10T01:01:20;15.30;99.90
22923;DHT22;11627;51.322;22.816;2022-07-10T01:03:50;15.40;99.90
22923;DHT22;11627;51.322;22.816;2022-07-10T01:06:17;15.50;99.90
22923;DHT22;11627;51.322;22.816;2022-07-10T01:08:45;15.40;99.90
22923;DHT22;11627;51.322;22.816;2022-07-10T01:11:14;15.40;99.90
22923;DHT22;11627;51.322;22.816;2022-07-10T01:13:41;15.40;99.90
22923;DHT22;11627;51.322;22.816;2022-07-10T01:16:11;15.30;99.90
22923;DHT22;11627;51.322;22.816;2022-07-10T01:18:38;15.30;99.90
22923;DHT22;11627;51.322;22.816;2022-07-10T01:21:05;15.20;99.90
22923;DHT22;11627;51.322;22.816;2022-07-10T01:23:33;15.30;99.90
22923;DHT22;11627;51.322;22.816;2022-07-10T01:26:00;15.30;99.90
22923;DHT22;11627;51.322;22.816;2022-07-10T01:28:30;15.40;99.90
22923;DHT22;11627;51.322;22.816;2022-07-10T01:30:57;15.40;99.90
22923;DHT22;11627;51.322;22.816;2022-07-10T01:33:25;15.60;99.90
22923;DHT22;11627;51.322;22.816;2022-07-10T01:35:52;15.50;99.90
22923;DHT22;11627;51.322;22.816;2022-07-10T01:38:18;15.50;99.90
22923;DHT22;11627;51.322;22.816;2022-07-10T01:40:45;15.40;99.90
22923;DHT22;11627;51.322;22.816;2022-07-10T01:43:12;15.30;99.90
22923;DHT22;11627;51.322;22.816;2022-07-10T01:45:38;15.30;99.90
22923;DHT22;11627;51.322;22.816;2022-07-10T01:48:04;15.30;99.90
22923;DHT22;11627;51.322;22.816;2022-07-10T01:50:30;15.40;99.90
22923;DHT22;11627;51.322;22.816;2022-07-10T01:52:58;15.40;99.90
22923;DHT22;11627;51.322;22.816;2022-07-10T01:55:23;15.30;99.90
22923;DHT22;11627;51.322;22.816;2022-07-10T01:57:50;15.30;99.90
22923;DHT22;11627;51.322;22.816;2022-07-10T02:00:16;15.30;99.90
22923;DHT22;11627;51.322;22.816;2022-07-10T02:02:43;15.20;99.90
22923;DHT22;11627;51.322;22.816;2022-07-10T02:05:29;15.30;99.90
22923;DHT22;11627;51.322;22.816;2022-07-10T02:07:55;15.20;99.90
22923;DHT22;11627;51.322;22.816;2022-07-10T02:10:20;15.20;99.90
22923;DHT22;11627;51.322;22.816;2022-07-10T02:12:47;15.30;99.90
22923;DHT22;11627;51.322;22.816;2022-07-10T02:15:13;15.10;99.90
22923;DHT22;11627;51.322;22.816;2022-07-10T02:17:40;15.10;99.90
22923;DHT22;11627;51.322;22.816;2022-07-10T02:20:05;15.10;99.90
22923;DHT22;11627;51.322;22.816;2022-07-10T02:22:33;15.10;1.00
22923;DHT22;11627;51.322;22.816;2022-07-10T02:25:00;15.10;99.90
22923;DHT22;11627;51.322;22.816;2022-07-10T02:27:25;15.10;99.90
22923;DHT22;11627;51.322;22.816;2022-07-10T02:29:51;15.10;1.00
22923;DHT22;11627;51.322;22.816;2022-07-10T02:32:18;15.00;1.00
22923;DHT22;11627;51.322;22.816;2022-07-10T02:34:45;15.10;1.00
22923;DHT22;11627;51.322;22.816;2022-07-10T02:37:10;15.20;1.00
22923;DHT22;11627;51.322;22.816;2022-07-10T02:39:37;15.20;1.00
22923;DHT22;11627;51.322;22.816;2022-07-10T02:42:04;15.30;1.00
22923;DHT22;11627;51.322;22.816;2022-07-10T02:44:31;15.30;1.00
22923;DHT22;11627;51.322;22.816;2022-07-10T02:46:57;15.30;1.00
22923;DHT22;11627;51.322;22.816;2022-07-10T02:49:23;15.20;1.00
22923;DHT22;11627;51.322;22.816;2022-07-10T02:51:50;14.80;1.00
22923;DHT22;11627;51.322;22.816;2022-07-10T02:54:17;15.20;1.00
22923;DHT22;11627;51.322;22.816;2022-07-10T02:56:44;16.50;1.00
22923;DHT22;11627;51.322;22.816;2022-07-10T02:59:09;15.20;1.00
22923;DHT22;11627;51.322;22.816;2022-07-10T03:01:35;15.10;1.00
22923;DHT22;11627;51.322;22.816;2022-07-10T03:04:02;15.10;1.00
22923;DHT22;11627;51.322;22.816;2022-07-10T03:06:27;15.00;1.00
22923;DHT22;11627;51.322;22.816;2022-07-10T03:08:55;15.20;1.00
22923;DHT22;11627;51.322;22.816;2022-07-10T03:11:20;15.00;1.00
22923;DHT22;11627;51.322;22.816;2022-07-10T03:13:47;15.10;1.00
22923;DHT22;11627;51.322;22.816;2022-07-10T03:16:13;15.10;1.00
22923;DHT22;11627;51.322;22.816;2022-07-10T03:18:38;15.10;1.00
22923;DHT22;11627;51.322;22.816;2022-07-10T03:21:04;16.70;1.00
22923;DHT22;11627;51.322;22.816;2022-07-10T03:23:31;15.10;1.00
22923;DHT22;11627;51.322;22.816;2022-07-10T03:25:57;15.00;1.00
22923;DHT22;11627;51.322;22.816;2022-07-10T03:28:24;15.00;1.00
22923;DHT22;11627;51.322;22.816;2022-07-10T03:30:50;15.00;1.00
22923;DHT22;11627;51.322;22.816;2022-07-10T03:33:17;15.00;1.00
22923;DHT22;11627;51.322;22.816;2022-07-10T03:35:44;15.10;1.00
22923;DHT22;11627;51.322;22.816;2022-07-10T03:38:10;14.90;1.00
22923;DHT22;11627;51.322;22.816;2022-07-10T03:40:38;14.90;1.00
22923;DHT22;11627;51.322;22.816;2022-07-10T03:43:05;14.90;1.00
22923;DHT22;11627;51.322;22.816;2022-07-10T03:45:31;15.00;1.00
22923;DHT22;11627;51.322;22.816;2022-07-10T03:47:56;15.00;1.00
22923;DHT22;11627;51.322;22.816;2022-07-10T03:50:23;14.90;1.00
22923;DHT22;11627;51.322;22.816;2022-07-10T03:52:50;14.70;1.00
22923;DHT22;11627;51.322;22.816;2022-07-10T03:55:15;14.80;1.00
22923;DHT22;11627;51.322;22.816;2022-07-10T03:57:41;15.20;1.00
22923;DHT22;11627;51.322;22.816;2022-07-10T04:00:20;15.30;1.00
22923;DHT22;11627;51.322;22.816;2022-07-10T04:03:02;15.10;1.00
22923;DHT22;11627;51.322;22.816;2022-07-10T04:05:30;15.10;1.00
22923;DHT22;11627;51.322;22.816;2022-07-10T04:07:58;15.10;1.00
22923;DHT22;11627;51.322;22.816;2022-07-10T04:10:25;15.20;1.00
22923;DHT22;11627;51.322;22.816;2022-07-10T04:12:53;15.40;1.00
22923;DHT22;11627;51.322;22.816;2022-07-10T04:15:20;15.00;1.00
22923;DHT22;11627;51.322;22.816;2022-07-10T04:17:46;15.10;1.00
22923;DHT22;11627;51.322;22.816;2022-07-10T04:20:12;15.20;1.00
22923;DHT22;11627;51.322;22.816;2022-07-10T04:22:40;15.20;1.00
22923;DHT22;11627;51.322;22.816;2022-07-10T04:25:06;15.20;1.00
22923;DHT22;11627;51.322;22.816;2022-07-10T04:27:33;15.00;1.00
22923;DHT22;11627;51.322;22.816;2022-07-10T04:29:58;15.20;1.00
22923;DHT22;11627;51.322;22.816;2022-07-10T04:32:25;15.20;1.00
22923;DHT22;11627;51.322;22.816;2022-07-10T04:34:55;15.30;1.00
22923;DHT22;11627;51.322;22.816;2022-07-10T04:37:21;15.40;1.00
22923;DHT22;11627;51.322;22.816;2022-07-10T04:39:48;15.40;1.00
22923;DHT22;11627;51.322;22.816;2022-07-10T04:42:15;15.50;1.00
22923;DHT22;11627;51.322;22.816;2022-07-10T04:44:42;15.70;1.00
22923;DHT22;11627;51.322;22.816;2022-07-10T04:47:09;15.70;1.00
22923;DHT22;11627;51.322;22.816;2022-07-10T04:49:35;15.60;1.00
22923;DHT22;11627;51.322;22.816;2022-07-10T04:52:02;16.80;1.00
22923;DHT22;11627;51.322;22.816;2022-07-10T04:54:28;15.70;1.00
22923;DHT22;11627;51.322;22.816;2022-07-10T04:56:54;15.80;1.00
22923;DHT22;11627;51.322;22.816;2022-07-10T04:59:20;15.80;1.00
22923;DHT22;11627;51.322;22.816;2022-07-10T05:01:46;15.80;1.00
22923;DHT22;11627;51.322;22.816;2022-07-10T05:04:13;15.80;1.00
22923;DHT22;11627;51.322;22.816;2022-07-10T05:06:38;15.90;1.00
22923;DHT22;11627;51.322;22.816;2022-07-10T05:09:04;15.80;99.90
22923;DHT22;11627;51.322;22.816;2022-07-10T05:11:30;15.90;99.90
22923;DHT22;11627;51.322;22.816;2022-07-10T05:13:58;15.90;99.90
22923;DHT22;11627;51.322;22.816;2022-07-10T05:16:24;16.00;99.90
22923;DHT22;11627;51.322;22.816;2022-07-10T05:18:51;18.40;99.90
22923;DHT22;11627;51.322;22.816;2022-07-10T05:21:16;16.00;99.90
22923;DHT22;11627;51.322;22.816;2022-07-10T05:23:43;16.00;99.90
22923;DHT22;11627;51.322;22.816;2022-07-10T05:26:09;16.10;99.90
22923;DHT22;11627;51.322;22.816;2022-07-10T05:28:34;16.20;99.90
22923;DHT22;11627;51.322;22.816;2022-07-10T05:31:01;17.00;99.90
22923;DHT22;11627;51.322;22.816;2022-07-10T05:33:28;16.40;99.90
22923;DHT22;11627;51.322;22.816;2022-07-10T05:35:54;16.40;99.90
22923;DHT22;11627;51.322;22.816;2022-07-10T05:38:20;16.50;99.90
22923;DHT22;11627;51.322;22.816;2022-07-10T05:40:47;16.40;99.90
22923;DHT22;11627;51.322;22.816;2022-07-10T05:43:15;16.40;99.90
22923;DHT22;11627;51.322;22.816;2022-07-10T05:45:41;16.50;99.90
22923;DHT22;11627;51.322;22.816;2022-07-10T05:48:07;16.60;99.90
22923;DHT22;11627;51.322;22.816;2022-07-10T05:50:32;17.60;99.90
22923;DHT22;11627;51.322;22.816;2022-07-10T05:52:59;16.70;99.90
22923;DHT22;11627;51.322;22.816;2022-07-10T05:55:24;16.80;99.90
22923;DHT22;11627;51.322;22.816;2022-07-10T06:00:18;16.80;99.90
22923;DHT22;11627;51.322;22.816;2022-07-10T06:02:45;17.00;99.90
22923;DHT22;11627;51.322;22.816;2022-07-10T06:05:11;17.00;99.90
22923;DHT22;11627;51.322;22.816;2022-07-10T06:07:36;17.10;99.90
22923;DHT22;11627;51.322;22.816;2022-07-10T06:10:03;17.10;99.90
22923;DHT22;11627;51.322;22.816;2022-07-10T06:12:31;17.20;99.90
22923;DHT22;11627;51.322;22.816;2022-07-10T06:14:58;17.30;99.90
22923;DHT22;11627;51.322;22.816;2022-07-10T06:17:24;17.30;99.90
22923;DHT22;11627;51.322;22.816;2022-07-10T06:19:50;17.40;99.90
22923;DHT22;11627;51.322;22.816;2022-07-10T06:22:17;17.40;99.90
22923;DHT22;11627;51.322;22.816;2022-07-10T06:25:05;17.30;99.90
22923;DHT22;11627;51.322;22.816;2022-07-10T06:27:33;17.40;99.90
22923;DHT22;11627;51.322;22.816;2022-07-10T06:30:01;17.40;99.90
22923;DHT22;11627;51.322;22.816;2022-07-10T06:32:29;17.40;99.90
22923;DHT22;11627;51.322;22.816;2022-07-10T06:34:56;17.50;99.90
22923;DHT22;11627;51.322;22.816;2022-07-10T06:37:22;17.50;99.90
22923;DHT22;11627;51.322;22.816;2022-07-10T06:39:49;17.60;99.90
22923;DHT22;11627;51.322;22.816;2022-07-10T06:42:16;17.80;99.90
22923;DHT22;11627;51.322;22.816;2022-07-10T06:44:44;17.80;99.90
22923;DHT22;11627;51.322;22.816;2022-07-10T06:47:13;17.90;99.90
22923;DHT22;11627;51.322;22.816;2022-07-10T06:50:00;17.90;1.00
22923;DHT22;11627;51.322;22.816;2022-07-10T06:52:27;19.30;99.90
22923;DHT22;11627;51.322;22.816;2022-07-10T06:54:55;18.00;1.00
22923;DHT22;11627;51.322;22.816;2022-07-10T06:57:20;18.00;1.00
22923;DHT22;11627;51.322;22.816;2022-07-10T06:59:47;18.00;1.00
22923;DHT22;11627;51.322;22.816;2022-07-10T07:02:14;18.00;1.00
22923;DHT22;11627;51.322;22.816;2022-07-10T07:04:41;18.00;1.00
22923;DHT22;11627;51.322;22.816;2022-07-10T07:07:07;17.90;1.00
22923;DHT22;11627;51.322;22.816;2022-07-10T07:09:34;17.80;1.00
22923;DHT22;11627;51.322;22.816;2022-07-10T07:12:01;17.80;99.90
22923;DHT22;11627;51.322;22.816;2022-07-10T07:14:29;17.90;99.90
22923;DHT22;11627;51.322;22.816;2022-07-10T07:16:56;17.90;99.90
22923;DHT22;11627;51.322;22.816;2022-07-10T07:19:29;17.90;99.90
22923;DHT22;11627;51.322;22.816;2022-07-10T07:22:20;18.00;99.90
22923;DHT22;11627;51.322;22.816;2022-07-10T07:25:07;18.10;99.90
22923;DHT22;11627;51.322;22.816;2022-07-10T07:27:36;18.10;99.90
22923;DHT22;11627;51.322;22.816;2022-07-10T07:30:10;18.30;99.90
22923;DHT22;11627;51.322;22.816;2022-07-10T07:32:39;18.30;99.90
22923;DHT22;11627;51.322;22.816;2022-07-10T07:35:05;18.30;99.90
22923;DHT22;11627;51.322;22.816;2022-07-10T07:37:46;18.50;99.90
22923;DHT22;11627;51.322;22.816;2022-07-10T07:40:21;18.70;92.70
22923;DHT22;11627;51.322;22.816;2022-07-10T07:42:51;18.50;12.40
22923;DHT22;11627;51.322;22.816;2022-07-10T07:47:50;18.70;99.90
22923;DHT22;11627;51.322;22.816;2022-07-10T07:50:25;18.70;99.90
22923;DHT22;11627;51.322;22.816;2022-07-10T07:52:55;18.70;96.60
22923;DHT22;11627;51.322;22.816;2022-07-10T07:55:21;18.90;1.00
22923;DHT22;11627;51.322;22.816;2022-07-10T07:57:52;18.50;1.00
22923;DHT22;11627;51.322;22.816;2022-07-10T08:00:22;18.40;1.00
22923;DHT22;11627;51.322;22.816;2022-07-10T08:02:51;18.10;99.90
22923;DHT22;11627;51.322;22.816;2022-07-10T08:05:18;18.20;1.00
22923;DHT22;11627;51.322;22.816;2022-07-10T08:08:03;19.00;1.00
22923;DHT22;11627;51.322;22.816;2022-07-10T08:10:32;18.40;99.90
22923;DHT22;11627;51.322;22.816;2022-07-10T08:13:00;18.40;99.90
22923;DHT22;11627;51.322;22.816;2022-07-10T08:15:26;18.50;99.90
22923;DHT22;11627;51.322;22.816;2022-07-10T08:17:54;18.60;99.90
22923;DHT22;11627;51.322;22.816;2022-07-10T08:20:22;20.40;99.90
22923;DHT22;11627;51.322;22.816;2022-07-10T08:22:50;19.40;99.90
22923;DHT22;11627;51.322;22.816;2022-07-10T08:25:16;19.30;30.00
22923;DHT22;11627;51.322;22.816;2022-07-10T08:27:43;19.10;99.90
22923;DHT22;11627;51.322;22.816;2022-07-10T08:30:09;18.90;63.80
22923;DHT22;11627;51.322;22.816;2022-07-10T08:32:40;18.90;1.00
22923;DHT22;11627;51.322;22.816;2022-07-10T08:35:07;18.70;1.00
22923;DHT22;11627;51.322;22.816;2022-07-10T08:37:52;18.70;1.00
22923;DHT22;11627;51.322;22.816;2022-07-10T08:40:21;19.00;99.90
22923;DHT22;11627;51.322;22.816;2022-07-10T08:42:48;19.10;99.90
22923;DHT22;11627;51.322;22.816;2022-07-10T08:45:14;19.00;1.00
22923;DHT22;11627;51.322;22.816;2022-07-10T08:47:41;19.00;1.00
22923;DHT22;11627;51.322;22.816;2022-07-10T08:50:17;19.10;1.00
22923;DHT22;11627;51.322;22.816;2022-07-10T08:53:13;19.10;99.90
22923;DHT22;11627;51.322;22.816;2022-07-10T08:55:42;19.10;99.90
22923;DHT22;11627;51.322;22.816;2022-07-10T08:58:09;19.10;99.90
22923;DHT22;11627;51.322;22.816;2022-07-10T09:00:37;19.20;99.90
22923;DHT22;11627;51.322;22.816;2022-07-10T09:03:06;19.20;99.90
22923;DHT22;11627;51.322;22.816;2022-07-10T09:05:32;19.30;99.90
22923;DHT22;11627;51.322;22.816;2022-07-10T09:08:00;19.20;99.90
22923;DHT22;11627;51.322;22.816;2022-07-10T09:10:27;19.20;99.90
22923;DHT22;11627;51.322;22.816;2022-07-10T09:12:57;19.20;99.90
22923;DHT22;11627;51.322;22.816;2022-07-10T09:15:26;19.00;99.90
22923;DHT22;11627;51.322;22.816;2022-07-10T09:18:05;19.10;1.00
22923;DHT22;11627;51.322;22.816;2022-07-10T09:20:37;19.10;1.00
22923;DHT22;11627;51.322;22.816;2022-07-10T09:23:22;19.00;1.00
22923;DHT22;11627;51.322;22.816;2022-07-10T09:25:53;18.90;1.00
22923;DHT22;11627;51.322;22.816;2022-07-10T09:28:22;19.00;1.00
22923;DHT22;11627;51.322;22.816;2022-07-10T09:30:49;18.70;1.00
22923;DHT22;11627;51.322;22.816;2022-07-10T09:33:23;18.70;1.00
22923;DHT22;11627;51.322;22.816;2022-07-10T09:36:09;18.70;1.00
22923;DHT22;11627;51.322;22.816;2022-07-10T09:41:28;18.70;41.70
22923;DHT22;11627;51.322;22.816;2022-07-10T09:46:46;18.70;1.00
22923;DHT22;11627;51.322;22.816;2022-07-10T09:49:13;18.50;28.00
22923;DHT22;11627;51.322;22.816;2022-07-10T09:51:44;18.20;99.90
22923;DHT22;11627;51.322;22.816;2022-07-10T09:54:11;19.20;99.90
22923;DHT22;11627;51.322;22.816;2022-07-10T09:59:18;17.90;99.90
22923;DHT22;11627;51.322;22.816;2022-07-10T10:01:45;17.80;99.90
22923;DHT22;11627;51.322;22.816;2022-07-10T10:04:14;17.80;99.90
22923;DHT22;11627;51.322;22.816;2022-07-10T10:06:41;17.90;99.90
22923;DHT22;11627;51.322;22.816;2022-07-10T10:09:26;17.90;1.00
22923;DHT22;11627;51.322;22.816;2022-07-10T10:12:16;18.00;1.00
22923;DHT22;11627;51.322;22.816;2022-07-10T10:14:43;18.00;1.00
22923;DHT22;11627;51.322;22.816;2022-07-10T10:17:10;19.10;1.00
22923;DHT22;11627;51.322;22.816;2022-07-10T10:19:38;18.00;1.00
22923;DHT22;11627;51.322;22.816;2022-07-10T10:22:24;17.90;99.90
22923;DHT22;11627;51.322;22.816;2022-07-10T10:24:52;17.80;99.90
22923;DHT22;11627;51.322;22.816;2022-07-10T10:27:20;19.70;99.90
22923;DHT22;11627;51.322;22.816;2022-07-10T10:29:48;19.70;99.90
22923;DHT22;11627;51.322;22.816;2022-07-10T10:32:14;17.90;99.90
22923;DHT22;11627;51.322;22.816;2022-07-10T10:34:44;18.00;99.90
22923;DHT22;11627;51.322;22.816;2022-07-10T10:40:08;17.90;99.90
22923;DHT22;11627;51.322;22.816;2022-07-10T10:42:36;18.10;99.90
22923;DHT22;11627;51.322;22.816;2022-07-10T10:45:31;18.10;99.90
22923;DHT22;11627;51.322;22.816;2022-07-10T10:48:11;18.00;40.10
22923;DHT22;11627;51.322;22.816;2022-07-10T10:50:48;17.90;1.00
22923;DHT22;11627;51.322;22.816;2022-07-10T10:53:21;17.80;11.40
22923;DHT22;11627;51.322;22.816;2022-07-10T10:58:37;17.90;99.90
22923;DHT22;11627;51.322;22.816;2022-07-10T11:06:53;17.90;99.90
22923;DHT22;11627;51.322;22.816;2022-07-10T11:09:28;18.10;99.90
22923;DHT22;11627;51.322;22.816;2022-07-10T11:12:07;18.20;1.00
22923;DHT22;11627;51.322;22.816;2022-07-10T11:14:38;18.40;1.00
22923;DHT22;11627;51.322;22.816;2022-07-10T11:17:06;18.30;99.90
22923;DHT22;11627;51.322;22.816;2022-07-10T11:19:34;18.20;99.90
22923;DHT22;11627;51.322;22.816;2022-07-10T11:22:43;18.10;99.90
22923;DHT22;11627;51.322;22.816;2022-07-10T11:25:37;18.00;99.90
22923;DHT22;11627;51.322;22.816;2022-07-10T11:28:13;18.20;99.90
22923;DHT22;11627;51.322;22.816;2022-07-10T11:30:45;18.30;99.90
22923;DHT22;11627;51.322;22.816;2022-07-10T11:33:12;20.90;99.90
22923;DHT22;11627;51.322;22.816;2022-07-10T11:35:39;18.40;99.90
22923;DHT22;11627;51.322;22.816;2022-07-10T11:38:05;18.40;99.90
22923;DHT22;11627;51.322;22.816;2022-07-10T11:40:38;18.80;99.90
22923;DHT22;11627;51.322;22.816;2022-07-10T11:43:04;18.30;52.40
22923;DHT22;11627;51.322;22.816;2022-07-10T11:45:39;18.30;60.90
22923;DHT22;11627;51.322;22.816;2022-07-10T11:48:05;18.40;65.00
22923;DHT22;11627;51.322;22.816;2022-07-10T11:50:37;18.50;87.10
22923;DHT22;11627;51.322;22.816;2022-07-10T11:53:04;18.60;7.50
22923;DHT22;11627;51.322;22.816;2022-07-10T11:55:30;18.40;1.00
22923;DHT22;11627;51.322;22.816;2022-07-10T11:58:21;18.50;34.00
22923;DHT22;11627;51.322;22.816;2022-07-10T12:01:01;18.40;1.00
22923;DHT22;11627;51.322;22.816;2022-07-10T12:03:30;18.40;1.00
22923;DHT22;11627;51.322;22.816;2022-07-10T12:06:04;19.50;1.00
22923;DHT22;11627;51.322;22.816;2022-07-10T12:08:42;18.50;1.00
22923;DHT22;11627;51.322;22.816;2022-07-10T12:11:13;18.60;1.00
22923;DHT22;11627;51.322;22.816;2022-07-10T12:13:40;18.60;1.00
22923;DHT22;11627;51.322;22.816;2022-07-10T12:16:06;19.90;1.00
22923;DHT22;11627;51.322;22.816;2022-07-10T12:18:32;18.50;1.00
22923;DHT22;11627;51.322;22.816;2022-07-10T12:20:59;18.40;1.00
22923;DHT22;11627;51.322;22.816;2022-07-10T12:23:27;18.40;1.00
22923;DHT22;11627;51.322;22.816;2022-07-10T12:25:54;19.10;1.00
22923;DHT22;11627;51.322;22.816;2022-07-10T12:28:22;18.50;1.00
22923;DHT22;11627;51.322;22.816;2022-07-10T12:30:48;18.60;1.00
22923;DHT22;11627;51.322;22.816;2022-07-10T12:33:22;18.70;1.00
22923;DHT22;11627;51.322;22.816;2022-07-10T12:35:49;18.50;1.00
22923;DHT22;11627;51.322;22.816;2022-07-10T12:38:24;18.50;1.00
22923;DHT22;11627;51.322;22.816;2022-07-10T12:40:52;18.50;1.00
22923;DHT22;11627;51.322;22.816;2022-07-10T12:43:32;18.50;1.00
22923;DHT22;11627;51.322;22.816;2022-07-10T12:46:24;18.50;1.00
22923;DHT22;11627;51.322;22.816;2022-07-10T12:51:47;18.30;1.00
22923;DHT22;11627;51.322;22.816;2022-07-10T12:54:33;18.20;1.00
22923;DHT22;11627;51.322;22.816;2022-07-10T12:57:00;18.20;1.00
22923;DHT22;11627;51.322;22.816;2022-07-10T12:59:26;19.00;1.00
22923;DHT22;11627;51.322;22.816;2022-07-10T13:01:54;18.20;1.00
22923;DHT22;11627;51.322;22.816;2022-07-10T13:04:24;18.20;1.00
22923;DHT22;11627;51.322;22.816;2022-07-10T13:06:52;18.10;1.00
22923;DHT22;11627;51.322;22.816;2022-07-10T13:09:23;18.20;1.00
22923;DHT22;11627;51.322;22.816;2022-07-10T13:11:52;18.10;1.00
22923;DHT22;11627;51.322;22.816;2022-07-10T13:14:19;18.60;1.00
22923;DHT22;11627;51.322;22.816;2022-07-10T13:16:46;18.70;1.00
22923;DHT22;11627;51.322;22.816;2022-07-10T13:19:12;20.20;1.00
22923;DHT22;11627;51.322;22.816;2022-07-10T13:21:38;18.30;1.00
22923;DHT22;11627;51.322;22.816;2022-07-10T13:24:04;18.30;1.00
22923;DHT22;11627;51.322;22.816;2022-07-10T13:26:30;18.30;1.00
22923;DHT22;11627;51.322;22.816;2022-07-10T13:28:57;18.20;1.00
22923;DHT22;11627;51.322;22.816;2022-07-10T13:31:24;18.20;1.00
22923;DHT22;11627;51.322;22.816;2022-07-10T13:33:50;18.30;1.00
22923;DHT22;11627;51.322;22.816;2022-07-10T13:36:16;18.30;1.00
22923;DHT22;11627;51.322;22.816;2022-07-10T13:38:41;18.30;1.00
22923;DHT22;11627;51.322;22.816;2022-07-10T13:41:07;18.30;1.00
22923;DHT22;11627;51.322;22.816;2022-07-10T13:43:34;18.90;1.00
22923;DHT22;11627;51.322;22.816;2022-07-10T13:46:00;18.30;1.00
22923;DHT22;11627;51.322;22.816;2022-07-10T13:48:26;18.40;1.00
22923;DHT22;11627;51.322;22.816;2022-07-10T13:50:53;18.40;1.00
22923;DHT22;11627;51.322;22.816;2022-07-10T13:53:19;18.30;1.00
22923;DHT22;11627;51.322;22.816;2022-07-10T13:55:45;18.40;1.00
22923;DHT22;11627;51.322;22.816;2022-07-10T13:58:12;18.40;4.50
22923;DHT22;11627;51.322;22.816;2022-07-10T14:00:38;18.30;1.00
22923;DHT22;11627;51.322;22.816;2022-07-10T14:03:04;18.30;1.00
22923;DHT22;11627;51.322;22.816;2022-07-10T14:05:30;18.30;8.00
22923;DHT22;11627;51.322;22.816;2022-07-10T14:07:58;18.40;1.00
22923;DHT22;11627;51.322;22.816;2022-07-10T14:10:24;18.00;98.60
22923;DHT22;11627;51.322;22.816;2022-07-10T14:12:51;18.30;10.10
22923;DHT22;11627;51.322;22.816;2022-07-10T14:15:18;18.30;16.70
22923;DHT22;11627;51.322;22.816;2022-07-10T14:17:44;18.30;37.90
22923;DHT22;11627;51.322;22.816;2022-07-10T14:20:10;18.30;99.90
22923;DHT22;11627;51.322;22.816;2022-07-10T14:22:36;18.30;42.40
22923;DHT22;11627;51.322;22.816;2022-07-10T14:25:06;18.20;72.60
22923;DHT22;11627;51.322;22.816;2022-07-10T14:27:34;18.10;44.70
22923;DHT22;11627;51.322;22.816;2022-07-10T14:30:00;18.20;97.60
22923;DHT22;11627;51.322;22.816;2022-07-10T14:32:25;17.90;90.80
22923;DHT22;11627;51.322;22.816;2022-07-10T14:34:51;18.00;99.90
22923;DHT22;11627;51.322;22.816;2022-07-10T14:37:17;17.90;99.90
22923;DHT22;11627;51.322;22.816;2022-07-10T14:39:43;17.80;99.90
22923;DHT22;11627;51.322;22.816;2022-07-10T14:42:08;17.70;99.90
22923;DHT22;11627;51.322;22.816;2022-07-10T14:44:37;17.60;99.90
22923;DHT22;11627;51.322;22.816;2022-07-10T14:47:03;17.60;99.90
22923;DHT22;11627;51.322;22.816;2022-07-10T14:49:29;17.60;99.90
22923;DHT22;11627;51.322;22.816;2022-07-10T14:51:55;17.50;99.90
22923;DHT22;11627;51.322;22.816;2022-07-10T14:54:21;17.50;99.90
22923;DHT22;11627;51.322;22.816;2022-07-10T14:56:47;18.60;99.90
22923;DHT22;11627;51.322;22.816;2022-07-10T14:59:12;17.50;99.90
22923;DHT22;11627;51.322;22.816;2022-07-10T15:01:38;17.50;99.90
22923;DHT22;11627;51.322;22.816;2022-07-10T15:04:04;17.40;99.90
22923;DHT22;11627;51.322;22.816;2022-07-10T15:06:31;18.30;99.90
22923;DHT22;11627;51.322;22.816;2022-07-10T15:08:57;17.30;99.90
22923;DHT22;11627;51.322;22.816;2022-07-10T15:11:23;17.40;99.90
22923;DHT22;11627;51.322;22.816;2022-07-10T15:13:52;18.20;99.90
22923;DHT22;11627;51.322;22.816;2022-07-10T15:16:27;17.40;99.90
22923;DHT22;11627;51.322;22.816;2022-07-10T15:18:53;17.40;99.90
22923;DHT22;11627;51.322;22.816;2022-07-10T15:21:19;18.50;99.90
22923;DHT22;11627;51.322;22.816;2022-07-10T15:28:37;17.30;99.90
22923;DHT22;11627;51.322;22.816;2022-07-10T15:31:03;17.30;99.90
22923;DHT22;11627;51.322;22.816;2022-07-10T15:33:34;17.30;99.90
22923;DHT22;11627;51.322;22.816;2022-07-10T15:36:01;17.40;99.90
22923;DHT22;11627;51.322;22.816;2022-07-10T15:38:27;17.50;99.90
22923;DHT22;11627;51.322;22.816;2022-07-10T15:40:53;17.50;99.90
22923;DHT22;11627;51.322;22.816;2022-07-10T15:43:18;17.70;99.90
22923;DHT22;11627;51.322;22.816;2022-07-10T15:45:44;17.80;99.90
22923;DHT22;11627;51.322;22.816;2022-07-10T15:48:10;17.80;99.90
22923;DHT22;11627;51.322;22.816;2022-07-10T15:50:40;18.50;99.90
22923;DHT22;11627;51.322;22.816;2022-07-10T15:53:07;18.20;99.90
22923;DHT22;11627;51.322;22.816;2022-07-10T15:55:33;19.90;99.90
22923;DHT22;11627;51.322;22.816;2022-07-10T15:57:58;18.10;99.90
22923;DHT22;11627;51.322;22.816;2022-07-10T16:00:24;18.10;99.90
22923;DHT22;11627;51.322;22.816;2022-07-10T16:02:50;18.10;99.90
22923;DHT22;11627;51.322;22.816;2022-07-10T16:05:16;21.00;99.90